Time;durP1;ratioP1;P1;durP2;ratioP2;P2;SDS_P1;SDS_P2;PMS_P1;PMS_P2;Temp;Humidity;BMP_temperature;BMP_pressure;BME280_temperature;BME280_humidity;BME280_pressure;Samples;Min_cycle;Max_cycle;Signal;HPM_P1;HPM_P2
2022/01/26 00:00:55;;;;;;;18.10;6.20;;;;;;;2.38;92.36;101462.70;106111;1268;24252;-62
2022/01/26 00:06:21;;;;;;;17.60;5.70;;;;;;;2.39;92.31;101459.96;106001;1267;24274;-63
2022/01/26 00:08:52;;;;;;;17.10;5.00;;;;;;;2.39;92.33;101453.27;105973;1268;22617;-61
2022/01/26 00:11:24;;;;;;;21.10;6.90;;;;;;;2.39;92.27;101453.82;106060;1268;22556;-62
2022/01/26 00:13:55;;;;;;;17.90;6.00;;;;;;;2.39;92.31;101444.60;106117;1268;25653;-62
2022/01/26 00:16:28;;;;;;;21.10;7.10;;;;;;;2.40;92.30;101448.08;106118;1268;24136;-62
2022/01/26 00:19:01;;;;;;;18.20;6.10;;;;;;;2.40;92.33;101443.98;106093;1268;26688;-61
2022/01/26 00:21:36;;;;;;;24.10;6.80;;;;;;;2.40;92.33;101443.02;106213;1267;22550;-62
2022/01/26 00:24:37;;;;;;;19.80;6.30;;;;;;;2.39;92.25;101445.08;106049;1268;26087;-62
2022/01/26 00:27:29;;;;;;;20.00;6.40;;;;;;;2.39;92.25;101441.30;106043;1268;25252;-62
2022/01/26 00:31:12;;;;;;;17.20;5.20;;;;;;;2.38;92.27;101439.09;106014;1268;22545;-62
2022/01/26 00:38:37;;;;;;;17.10;5.20;;;;;;;2.39;92.16;101438.14;106069;1268;22596;-61
2022/01/26 00:41:13;;;;;;;17.30;6.40;;;;;;;2.39;92.06;101442.79;106014;1267;24447;-62
2022/01/26 00:43:49;;;;;;;19.70;6.20;;;;;;;2.40;92.15;101445.23;106075;1267;23665;-62
2022/01/26 00:46:21;;;;;;;19.00;5.50;;;;;;;2.40;92.13;101449.88;106172;1267;22561;-62
2022/01/26 00:48:53;;;;;;;17.50;5.30;;;;;;;2.39;92.06;101449.56;106119;1266;27674;-62
2022/01/26 00:51:24;;;;;;;21.00;4.80;;;;;;;2.40;92.09;101447.60;106057;1268;24428;-62
2022/01/26 00:54:02;;;;;;;20.10;6.50;;;;;;;2.41;92.05;101443.17;106021;1268;23103;-62
2022/01/26 00:56:33;;;;;;;18.20;4.90;;;;;;;2.41;92.04;101443.73;106105;1267;22557;-62
2022/01/26 00:59:05;;;;;;;18.60;4.80;;;;;;;2.40;91.89;101437.91;105993;1268;22586;-61
2022/01/26 01:01:36;;;;;;;16.60;4.80;;;;;;;2.39;91.84;101434.45;106045;1268;24224;-62
2022/01/26 01:04:09;;;;;;;18.50;5.40;;;;;;;2.39;91.79;101430.27;106052;1268;22634;-63
2022/01/26 01:06:49;;;;;;;18.50;5.80;;;;;;;2.38;91.84;101423.49;106020;1267;22532;-62
2022/01/26 01:09:23;;;;;;;17.50;4.80;;;;;;;2.38;91.85;101419.32;105987;1267;22608;-61
2022/01/26 01:11:57;;;;;;;16.20;5.00;;;;;;;2.37;91.87;101422.09;106016;1268;24696;-61
2022/01/26 01:14:30;;;;;;;15.70;4.00;;;;;;;2.36;91.85;101416.09;105991;1267;22692;-62
2022/01/26 01:17:03;;;;;;;16.70;5.00;;;;;;;2.35;91.85;101407.91;106121;1268;24700;-61
2022/01/26 01:19:40;;;;;;;16.10;4.50;;;;;;;2.34;91.86;101405.30;106136;1267;24318;-62
2022/01/26 01:22:40;;;;;;;14.50;4.60;;;;;;;2.32;91.85;101406.58;105996;1268;22611;-62
2022/01/26 01:28:24;;;;;;;20.20;5.90;;;;;;;2.33;91.87;101412.40;105991;1268;25013;-62
2022/01/26 01:31:00;;;;;;;23.60;7.80;;;;;;;2.33;91.89;101406.34;106013;1267;22605;-61
2022/01/26 01:33:38;;;;;;;21.90;6.70;;;;;;;2.33;91.89;101402.88;105984;1268;23640;-63
2022/01/26 01:36:10;;;;;;;18.60;5.40;;;;;;;2.32;91.88;101404.38;106034;1268;25325;-62
2022/01/26 01:38:43;;;;;;;21.00;6.90;;;;;;;2.32;91.84;101406.58;106078;1268;24240;-61
2022/01/26 01:41:15;;;;;;;22.90;7.30;;;;;;;2.31;91.84;101408.15;106091;1267;25890;-61
2022/01/26 01:43:47;;;;;;;20.90;7.50;;;;;;;2.30;91.81;101408.79;106037;1267;22535;-61
2022/01/26 01:46:18;;;;;;;20.80;6.60;;;;;;;2.29;91.85;101402.01;106044;1267;22670;-62
2022/01/26 01:48:49;;;;;;;23.30;7.10;;;;;;;2.29;91.83;101393.20;105996;1268;22537;-62
2022/01/26 01:51:28;;;;;;;20.70;6.80;;;;;;;2.28;91.85;101397.45;106184;1268;25467;-62
2022/01/26 01:54:00;;;;;;;21.70;6.70;;;;;;;2.28;91.83;101401.63;106033;1268;22614;-62
2022/01/26 01:56:31;;;;;;;20.60;7.20;;;;;;;2.28;91.94;101400.67;105900;1267;243454;-62
2022/01/26 01:59:02;;;;;;;21.00;7.60;;;;;;;2.27;91.81;101403.83;106082;1268;25267;-61
2022/01/26 02:01:33;;;;;;;22.00;7.30;;;;;;;2.28;91.97;101401.92;106105;1267;24225;-61
2022/01/26 02:04:08;;;;;;;22.10;7.00;;;;;;;2.28;91.98;101400.35;106027;1268;22553;-63
2022/01/26 02:06:40;;;;;;;23.30;7.60;;;;;;;2.28;92.00;101401.30;106162;1267;25492;-61
2022/01/26 02:09:13;;;;;;;20.80;7.60;;;;;;;2.28;92.04;101405.00;106223;1268;24231;-63
2022/01/26 02:11:49;;;;;;;22.60;7.00;;;;;;;2.28;92.00;101405.80;106097;1268;22542;-63
2022/01/26 02:14:26;;;;;;;20.20;6.50;;;;;;;2.28;92.14;101406.02;106102;1268;22644;-63
2022/01/26 02:17:08;;;;;;;22.40;6.70;;;;;;;2.27;92.13;101401.23;106065;1268;24306;-61
2022/01/26 02:54:04;;;;;;;22.30;8.40;;;;;;;2.24;92.37;101389.89;104472;1287;24335;-62
2022/01/26 02:56:47;;;;;;;18.90;6.20;;;;;;;2.24;92.38;101390.13;104471;1287;22562;-61
2022/01/26 02:59:53;;;;;;;23.80;8.40;;;;;;;2.23;92.34;101380.30;104550;1284;24712;-61
2022/01/26 03:02:36;;;;;;;23.20;7.60;;;;;;;2.24;92.25;101378.71;105034;1279;24266;-62
2022/01/26 03:05:11;;;;;;;20.90;6.20;;;;;;;2.23;92.29;101374.08;105498;1273;22569;-62
2022/01/26 03:07:47;;;;;;;18.60;5.80;;;;;;;2.23;92.25;101372.10;105696;1273;22546;-62
2022/01/26 03:10:23;;;;;;;22.80;7.60;;;;;;;2.23;92.23;101377.30;105530;1273;24325;-62
2022/01/26 03:12:58;;;;;;;26.30;8.50;;;;;;;2.23;92.29;101374.63;105578;1273;24349;-63
2022/01/26 03:15:34;;;;;;;23.10;7.80;;;;;;;2.23;92.30;101376.52;105940;1267;24089;-61
2022/01/26 03:18:29;;;;;;;24.30;7.90;;;;;;;2.23;92.26;101374.77;106169;1268;22538;-61
2022/01/26 03:21:04;;;;;;;26.90;8.80;;;;;;;2.23;92.28;101374.08;106160;1268;22535;-61
2022/01/26 03:29:26;;;;;;;23.40;8.10;;;;;;;2.22;92.41;101376.59;106036;1267;22531;-62
2022/01/26 03:35:01;;;;;;;19.70;6.60;;;;;;;2.20;92.51;101376.83;105731;1271;25364;-62
2022/01/26 03:37:38;;;;;;;20.40;6.30;;;;;;;2.19;92.60;101378.95;105704;1271;22659;-62
2022/01/26 03:40:15;;;;;;;21.00;7.10;;;;;;;2.19;92.55;101376.59;105746;1271;22554;-62
2022/01/26 03:42:46;;;;;;;20.30;4.90;;;;;;;2.18;92.60;101379.27;105789;1271;25309;-62
2022/01/26 03:45:17;;;;;;;19.50;6.00;;;;;;;2.19;92.60;101381.39;105872;1271;22563;-61
2022/01/26 03:47:48;;;;;;;20.10;6.60;;;;;;;2.19;92.60;101380.92;105653;1271;24607;-62
2022/01/26 03:50:20;;;;;;;19.00;6.10;;;;;;;2.19;92.56;101379.02;105778;1271;22554;-62
2022/01/26 03:52:51;;;;;;;20.90;6.70;;;;;;;2.19;92.66;101384.70;105770;1271;22578;-62
2022/01/26 03:55:22;;;;;;;17.80;5.10;;;;;;;2.20;92.65;101381.47;105687;1271;26709;-61
2022/01/26 03:57:53;;;;;;;19.30;5.90;;;;;;;2.20;92.66;101386.11;105661;1271;26614;-61
2022/01/26 04:00:24;;;;;;;21.80;6.40;;;;;;;2.21;92.70;101383.05;105741;1271;25882;-62
2022/01/26 04:02:55;;;;;;;14.20;4.30;;;;;;;2.20;92.68;101387.92;105798;1271;25609;-63
2022/01/26 04:05:27;;;;;;;18.20;4.90;;;;;;;2.20;92.71;101391.08;105636;1271;22608;-62
2022/01/26 04:08:05;;;;;;;17.60;5.10;;;;;;;2.20;92.68;101392.02;106123;1267;24269;-61
2022/01/26 04:10:48;;;;;;;17.50;4.60;;;;;;;2.19;92.84;101388.23;105999;1268;22541;-61
2022/01/26 04:13:19;;;;;;;12.70;3.80;;;;;;;2.17;92.76;101386.66;106057;1267;24261;-61
2022/01/26 04:15:51;;;;;;;15.70;4.60;;;;;;;2.17;92.79;101385.56;105976;1267;22562;-62
2022/01/26 04:18:27;;;;;;;14.30;4.00;;;;;;;2.16;92.90;101389.81;106052;1267;25032;-61
2022/01/26 04:21:03;;;;;;;16.00;4.20;;;;;;;2.15;92.91;101384.62;106008;1267;24264;-61
2022/01/26 04:23:41;;;;;;;17.60;4.80;;;;;;;2.15;92.96;101381.32;106014;1267;24345;-61
2022/01/26 04:26:15;;;;;;;19.40;5.60;;;;;;;2.14;92.98;101378.88;106005;1268;24217;-61
2022/01/26 04:28:51;;;;;;;18.70;4.80;;;;;;;2.15;93.08;101374.48;105995;1267;24314;-62
2022/01/26 04:31:22;;;;;;;19.20;5.60;;;;;;;2.15;93.01;101373.84;105980;1267;22634;-62
2022/01/26 04:33:54;;;;;;;20.50;4.10;;;;;;;2.15;93.00;101371.48;105979;1267;25267;-62
2022/01/26 04:36:30;;;;;;;17.50;4.90;;;;;;;2.15;93.00;101373.13;106054;1267;25333;-61
2022/01/26 04:39:06;;;;;;;15.80;5.20;;;;;;;2.15;92.94;101377.23;106089;1268;24281;-62
2022/01/26 04:41:42;;;;;;;17.30;4.70;;;;;;;2.16;92.97;101378.24;105955;1267;22543;-61
2022/01/26 04:44:20;;;;;;;20.00;5.90;;;;;;;2.16;93.02;101375.02;105981;1267;22616;-62
2022/01/26 04:46:52;;;;;;;19.00;5.70;;;;;;;2.17;93.04;101374.40;106066;1267;25330;-63
2022/01/26 04:49:23;;;;;;;17.70;4.80;;;;;;;2.18;93.05;101366.98;106109;1267;24220;-62
2022/01/26 04:51:56;;;;;;;19.00;5.90;;;;;;;2.19;92.99;101372.59;106003;1268;22574;-61
2022/01/26 04:54:28;;;;;;;19.00;5.90;;;;;;;2.19;92.95;101371.16;106007;1266;26612;-61
2022/01/26 04:57:00;;;;;;;20.70;6.10;;;;;;;2.19;92.95;101368.55;106121;1267;24376;-61
2022/01/26 04:59:31;;;;;;;20.60;6.30;;;;;;;2.20;92.87;101372.42;106076;1268;22550;-62
2022/01/26 05:02:02;;;;;;;21.80;7.00;;;;;;;2.21;92.88;101370.77;106115;1267;22656;-61
2022/01/26 05:04:33;;;;;;;18.60;6.20;;;;;;;2.21;92.89;101365.96;106020;1268;22666;-62
2022/01/26 05:07:04;;;;;;;16.20;5.40;;;;;;;2.21;92.81;101363.30;106232;1268;22549;-61
2022/01/26 05:09:36;;;;;;;15.80;4.50;;;;;;;2.21;92.78;101363.38;106139;1268;24163;-61
2022/01/26 05:12:09;;;;;;;15.50;3.80;;;;;;;2.21;92.80;101365.42;105961;1268;24367;-62
2022/01/26 05:14:42;;;;;;;14.90;4.30;;;;;;;2.21;92.81;101358.65;106041;1267;22554;-62
2022/01/26 05:17:14;;;;;;;17.90;5.10;;;;;;;2.21;92.76;101356.30;106019;1267;22562;-63
2022/01/26 05:19:45;;;;;;;17.50;5.50;;;;;;;2.21;92.78;101354.01;106114;1267;22566;-61
2022/01/26 05:22:16;;;;;;;19.40;5.60;;;;;;;2.21;92.76;101352.13;105986;1267;22547;-63
2022/01/26 05:24:48;;;;;;;18.00;5.60;;;;;;;2.21;92.82;101352.52;106054;1267;22548;-61
2022/01/26 05:27:20;;;;;;;18.80;4.40;;;;;;;2.21;92.80;101349.52;105987;1267;22535;-62
2022/01/26 05:29:52;;;;;;;17.70;4.80;;;;;;;2.22;92.81;101347.31;106011;1268;22571;-63
2022/01/26 05:32:26;;;;;;;19.20;5.10;;;;;;;2.22;92.95;101349.52;106006;1268;22985;-64
2022/01/26 05:34:57;;;;;;;16.40;5.30;;;;;;;2.22;92.81;101341.80;106030;1267;25261;-61
2022/01/26 05:37:28;;;;;;;16.70;5.00;;;;;;;2.22;92.79;101344.95;105988;1267;22528;-62
2022/01/26 05:40:02;;;;;;;20.00;5.50;;;;;;;2.22;92.83;101342.42;106142;1267;22982;-63
2022/01/26 05:42:35;;;;;;;17.20;4.70;;;;;;;2.21;92.88;101341.50;105950;1268;22573;-64
2022/01/26 05:45:18;;;;;;;17.40;4.20;;;;;;;2.22;92.85;101343.77;106080;1267;23055;-61
2022/01/26 05:47:49;;;;;;;16.30;4.40;;;;;;;2.22;92.83;101341.24;105975;1267;24233;-62
2022/01/26 05:50:21;;;;;;;16.80;5.40;;;;;;;2.23;92.85;101337.95;106070;1267;25272;-61
2022/01/26 05:52:52;;;;;;;16.30;4.50;;;;;;;2.22;92.87;101336.21;106024;1267;25366;-61
2022/01/26 05:55:23;;;;;;;21.00;5.20;;;;;;;2.23;92.85;101335.89;106029;1267;22540;-62
2022/01/26 05:57:55;;;;;;;15.60;4.10;;;;;;;2.22;92.79;101334.41;105975;1267;22551;-62
2022/01/26 06:00:26;;;;;;;17.20;4.40;;;;;;;2.22;92.77;101334.24;106045;1267;25352;-62
2022/01/26 06:03:00;;;;;;;15.60;4.50;;;;;;;2.22;92.75;101337.94;105937;1267;25266;-69
2022/01/26 06:05:33;;;;;;;14.40;3.60;;;;;;;2.22;92.74;101343.60;106614;1267;24241;-63
2022/01/26 06:08:05;;;;;;;14.50;4.00;;;;;;;2.22;92.79;101337.08;106184;1268;22565;-61
2022/01/26 06:10:36;;;;;;;16.50;4.00;;;;;;;2.23;92.78;101339.75;106013;1267;25357;-61
2022/01/26 06:13:07;;;;;;;18.10;5.30;;;;;;;2.23;92.82;101341.00;106067;1267;25322;-61
2022/01/26 06:15:39;;;;;;;15.00;3.90;;;;;;;2.24;92.70;101339.11;106081;1267;22542;-60
2022/01/26 06:18:09;;;;;;;17.90;4.30;;;;;;;2.25;92.77;101336.84;106196;1267;22537;-63
2022/01/26 06:20:41;;;;;;;16.80;4.20;;;;;;;2.25;92.74;101337.08;106242;1267;26532;-60
2022/01/26 06:23:12;;;;;;;13.70;3.60;;;;;;;2.26;92.78;101336.44;106066;1266;22561;-61
2022/01/26 06:25:44;;;;;;;16.90;5.00;;;;;;;2.26;92.79;101336.52;106087;1267;22555;-62
2022/01/26 06:28:16;;;;;;;16.60;4.50;;;;;;;2.27;92.76;101334.56;105944;1267;23326;-62
2022/01/26 06:30:56;;;;;;;13.00;3.90;;;;;;;2.27;92.75;101332.10;105855;1267;22573;-61
2022/01/26 06:33:28;;;;;;;19.10;4.40;;;;;;;2.27;92.75;101338.41;106044;1267;22698;-62
2022/01/26 06:36:00;;;;;;;15.70;4.80;;;;;;;2.27;92.71;101337.77;105949;1267;23626;-61
2022/01/26 06:38:31;;;;;;;17.30;4.90;;;;;;;2.27;92.75;101338.02;106481;1268;23020;-61
2022/01/26 06:41:02;;;;;;;18.10;4.90;;;;;;;2.27;92.77;101330.70;105876;1268;22554;-61
2022/01/26 06:43:33;;;;;;;19.10;4.80;;;;;;;2.27;92.75;101328.96;105831;1268;26592;-62
2022/01/26 06:46:07;;;;;;;16.50;4.70;;;;;;;2.26;92.81;101329.90;105958;1268;22544;-61
2022/01/26 06:48:57;;;;;;;19.70;5.10;;;;;;;2.26;92.84;101326.05;105884;1269;24223;-62
2022/01/26 06:51:29;;;;;;;15.10;4.30;;;;;;;2.26;92.78;101328.48;105785;1268;22584;-66
2022/01/26 06:54:00;;;;;;;18.10;5.80;;;;;;;2.26;92.88;101328.80;105961;1270;22564;-62
2022/01/26 06:56:34;;;;;;;18.00;4.90;;;;;;;2.25;92.87;101325.73;105952;1268;25022;-61
2022/01/26 06:59:05;;;;;;;16.40;4.10;;;;;;;2.25;92.85;101324.95;106097;1268;22548;-61
2022/01/26 07:01:37;;;;;;;17.50;5.40;;;;;;;2.25;92.89;101326.13;105899;1270;22525;-62
2022/01/26 07:04:08;;;;;;;21.00;6.50;;;;;;;2.24;92.86;101325.11;105895;1268;22529;-61
2022/01/26 07:06:40;;;;;;;17.10;5.00;;;;;;;2.24;92.90;101323.06;105928;1267;22655;-61
2022/01/26 07:09:11;;;;;;;14.80;4.60;;;;;;;2.24;92.96;101321.33;106006;1267;22551;-61
2022/01/26 07:11:42;;;;;;;20.50;6.50;;;;;;;2.24;93.01;101315.11;106124;1267;22531;-61
2022/01/26 07:14:23;;;;;;;23.30;6.00;;;;;;;2.23;93.10;101318.27;106087;1267;22615;-61
2022/01/26 07:19:54;;;;;;;20.50;7.00;;;;;;;2.23;93.05;101315.83;105970;1269;24355;-61
2022/01/26 07:22:26;;;;;;;24.50;8.10;;;;;;;2.23;93.07;101318.58;106029;1267;27033;-61
2022/01/26 07:24:59;;;;;;;21.90;6.60;;;;;;;2.23;93.03;101319.14;106107;1268;23148;-61
2022/01/26 07:27:30;;;;;;;25.70;7.20;;;;;;;2.25;93.01;101325.19;105969;1267;25258;-61
2022/01/26 07:30:03;;;;;;;19.00;6.40;;;;;;;2.25;92.97;101323.53;105915;1268;22559;-61
2022/01/26 07:32:36;;;;;;;27.20;9.00;;;;;;;2.26;92.99;101327.70;106060;1269;25362;-61
2022/01/26 07:35:08;;;;;;;21.30;7.10;;;;;;;2.28;93.12;101332.73;106741;1268;22620;-61
2022/01/26 07:37:40;;;;;;;24.60;6.90;;;;;;;2.28;93.16;101333.29;106105;1268;25362;-60
2022/01/26 07:40:13;;;;;;;28.40;8.20;;;;;;;2.29;93.04;101339.89;106016;1267;25329;-61
2022/01/26 07:42:44;;;;;;;25.20;8.70;;;;;;;2.29;93.15;101339.74;106059;1267;22627;-61
2022/01/26 07:45:16;;;;;;;29.20;8.00;;;;;;;2.29;93.22;101340.77;106265;1268;25383;-61
2022/01/26 07:47:51;;;;;;;26.00;7.60;;;;;;;2.28;93.28;101339.97;106244;1267;25306;-61
2022/01/26 07:50:23;;;;;;;23.70;9.20;;;;;;;2.28;93.33;101341.02;105968;1268;23207;-61
2022/01/26 07:52:55;;;;;;;27.40;8.10;;;;;;;2.27;93.41;101338.58;106171;1268;22547;-61
2022/01/26 07:55:26;;;;;;;26.70;9.30;;;;;;;2.27;93.49;101334.40;106122;1267;25347;-61
2022/01/26 07:57:57;;;;;;;28.10;9.00;;;;;;;2.26;93.57;101330.45;105937;1268;22765;-60
2022/01/26 08:00:29;;;;;;;33.70;9.80;;;;;;;2.27;93.62;101335.58;106060;1267;22558;-61
2022/01/26 08:03:00;;;;;;;30.50;10.70;;;;;;;2.26;93.66;101334.08;105996;1267;22777;-61
2022/01/26 08:05:31;;;;;;;31.00;10.60;;;;;;;2.26;93.73;101343.76;105997;1268;23330;-60
2022/01/26 08:08:02;;;;;;;29.40;9.50;;;;;;;2.26;93.76;101340.14;106079;1267;27492;-60
2022/01/26 08:10:34;;;;;;;31.40;11.10;;;;;;;2.26;93.87;101336.59;105992;1268;23224;-61
2022/01/26 08:13:05;;;;;;;30.20;9.00;;;;;;;2.26;93.81;101340.92;106007;1268;22551;-61
2022/01/26 08:15:37;;;;;;;35.50;12.40;;;;;;;2.26;93.87;101340.52;106097;1267;24316;-61
2022/01/26 08:18:08;;;;;;;26.30;9.70;;;;;;;2.27;93.95;101341.17;106113;1267;22606;-61
2022/01/26 08:20:40;;;;;;;35.70;11.10;;;;;;;2.27;93.86;101339.52;106398;1266;24278;-63
2022/01/26 08:23:11;;;;;;;31.20;9.20;;;;;;;2.28;93.85;101345.02;106075;1268;25828;-61
2022/01/26 08:25:42;;;;;;;37.00;13.00;;;;;;;2.27;93.75;101344.08;106016;1268;25316;-61
2022/01/26 08:28:16;;;;;;;34.90;11.00;;;;;;;2.27;93.75;101337.77;106158;1267;24261;-61
2022/01/26 08:30:48;;;;;;;34.10;12.00;;;;;;;2.28;93.87;101339.83;106134;1267;24380;-61
2022/01/26 08:33:19;;;;;;;36.20;13.10;;;;;;;2.28;93.90;101344.94;106111;1267;22548;-61
2022/01/26 08:35:51;;;;;;;33.20;12.10;;;;;;;2.28;93.92;101341.55;106113;1267;25330;-61
2022/01/26 08:38:23;;;;;;;37.60;11.70;;;;;;;2.29;93.92;101345.09;105997;1268;22538;-61
2022/01/26 08:40:54;;;;;;;33.90;12.20;;;;;;;2.30;93.96;101345.95;106034;1267;22561;-61
2022/01/26 08:43:25;;;;;;;37.00;12.60;;;;;;;2.31;94.02;101334.55;106462;1268;24575;-61
2022/01/26 08:45:56;;;;;;;46.90;16.40;;;;;;;2.32;94.01;101336.81;106177;1267;24311;-61
2022/01/26 08:48:27;;;;;;;41.40;15.60;;;;;;;2.33;94.08;101336.50;106016;1267;25492;-61
2022/01/26 08:50:59;;;;;;;40.00;14.20;;;;;;;2.34;94.08;101336.02;106061;1267;22543;-61
2022/01/26 08:53:30;;;;;;;35.40;13.40;;;;;;;2.36;94.18;101336.81;106062;1267;25503;-62
2022/01/26 08:56:01;;;;;;;39.50;13.50;;;;;;;2.36;94.25;101334.22;106117;1268;22537;-61
2022/01/26 08:58:32;;;;;;;30.10;11.30;;;;;;;2.37;94.17;101334.92;106025;1267;23055;-62
2022/01/26 09:01:03;;;;;;;42.80;16.00;;;;;;;2.37;94.06;101331.22;106009;1268;25352;-60
2022/01/26 09:03:39;;;;;;;37.80;13.10;;;;;;;2.39;94.03;101335.47;106030;1268;22554;-60
2022/01/26 09:06:10;;;;;;;30.00;11.50;;;;;;;2.40;94.01;101333.02;105980;1268;24377;-61
2022/01/26 09:08:45;;;;;;;37.30;12.60;;;;;;;2.42;94.05;101335.40;106103;1266;24313;-61
2022/01/26 09:11:21;;;;;;;30.20;11.50;;;;;;;2.43;93.92;101339.63;106017;1267;22620;-61
2022/01/26 09:13:57;;;;;;;32.80;12.30;;;;;;;2.45;93.93;101339.55;105967;1267;22555;-61
2022/01/26 09:16:29;;;;;;;37.40;14.40;;;;;;;2.48;93.98;101343.79;106062;1268;22859;-61
2022/01/26 09:19:07;;;;;;;33.60;12.50;;;;;;;2.50;93.92;101346.08;106004;1268;24273;-60
2022/01/26 09:21:39;;;;;;;35.40;13.30;;;;;;;2.53;93.79;101346.86;105995;1267;23377;-61
2022/01/26 09:24:10;;;;;;;32.20;12.50;;;;;;;2.55;93.74;101349.92;106023;1266;24437;-61
2022/01/26 09:26:41;;;;;;;37.80;14.00;;;;;;;2.56;93.55;101353.00;106124;1267;25251;-61
2022/01/26 09:29:12;;;;;;;33.50;12.50;;;;;;;2.57;93.55;101352.83;106055;1268;25242;-60
2022/01/26 09:31:47;;;;;;;33.90;12.90;;;;;;;2.59;93.57;101350.24;106108;1268;25331;-61
2022/01/26 09:34:20;;;;;;;30.00;11.70;;;;;;;2.60;93.47;101353.70;106018;1268;23898;-61
2022/01/26 09:36:51;;;;;;;31.20;11.30;;;;;;;2.59;93.48;101347.55;106141;1267;25433;-61
2022/01/26 09:39:24;;;;;;;28.50;9.30;;;;;;;2.59;93.41;101345.73;106181;1268;25372;-61
2022/01/26 09:41:55;;;;;;;34.80;12.60;;;;;;;2.58;93.42;101346.45;106316;1267;23037;-61
2022/01/26 09:44:27;;;;;;;32.30;12.20;;;;;;;2.58;93.46;101341.88;106127;1267;25316;-61
2022/01/26 09:46:58;;;;;;;28.90;9.80;;;;;;;2.58;93.51;101341.10;106041;1267;22640;-61
2022/01/26 09:49:32;;;;;;;26.30;10.10;;;;;;;2.58;93.43;101337.79;106280;1268;22548;-61
2022/01/26 09:52:07;;;;;;;25.60;9.50;;;;;;;2.58;93.42;101335.90;106235;1267;22572;-61
2022/01/26 09:54:38;;;;;;;29.70;10.80;;;;;;;2.59;93.46;101326.92;106432;1268;25357;-61
2022/01/26 09:57:10;;;;;;;25.80;9.90;;;;;;;2.61;93.49;101327.85;106087;1267;22628;-60
2022/01/26 09:59:41;;;;;;;33.10;11.50;;;;;;;2.62;93.44;101330.45;106036;1267;22559;-62
2022/01/26 10:02:24;;;;;;;35.00;12.90;;;;;;;2.64;93.38;101321.71;106059;1268;25283;-62
2022/01/26 10:05:04;;;;;;;32.30;12.30;;;;;;;2.65;93.37;101322.17;105994;1267;23653;-61
2022/01/26 10:07:50;;;;;;;27.50;11.40;;;;;;;2.67;93.32;101321.05;106364;1267;22537;-62
2022/01/26 10:16:20;;;;;;;34.30;12.30;;;;;;;2.72;93.03;101312.14;106010;1268;25512;-62
2022/01/26 10:18:56;;;;;;;35.00;14.50;;;;;;;2.75;93.19;101312.91;106230;1267;24577;-62
2022/01/26 10:21:27;;;;;;;28.20;12.20;;;;;;;2.79;93.24;101310.85;106570;1267;24226;-62
2022/01/26 10:24:08;;;;;;;35.10;12.40;;;;;;;2.81;92.94;101312.34;106068;1267;22569;-60
2022/01/26 10:26:40;;;;;;;26.30;10.00;;;;;;;2.85;92.80;101315.24;106214;1268;22586;-60
2022/01/26 10:29:15;;;;;;;27.10;10.90;;;;;;;2.87;92.73;101308.54;106044;1268;25996;-61
2022/01/26 10:31:46;;;;;;;27.80;10.10;;;;;;;2.91;92.59;101309.21;106123;1267;23699;-60
2022/01/26 10:34:19;;;;;;;31.40;11.90;;;;;;;2.92;92.56;101304.23;106055;1268;22538;-63
2022/01/26 10:36:52;;;;;;;30.80;11.30;;;;;;;2.94;92.48;101301.55;106197;1267;24283;-60
2022/01/26 10:39:28;;;;;;;30.00;11.70;;;;;;;2.98;92.53;101299.02;106377;1267;24355;-60
2022/01/26 10:42:02;;;;;;;21.60;8.10;;;;;;;3.00;92.43;101297.20;106216;1268;24206;-61
2022/01/26 10:44:40;;;;;;;21.10;7.80;;;;;;;3.02;92.17;101298.14;106061;1268;22537;-61
2022/01/26 10:47:11;;;;;;;21.30;6.90;;;;;;;3.04;92.17;101295.60;106014;1268;22649;-60
2022/01/26 10:50:06;;;;;;;25.40;8.20;;;;;;;3.05;91.83;101296.23;106057;1268;26173;-62
2022/01/26 10:52:38;;;;;;;33.70;10.60;;;;;;;3.06;91.78;101296.23;106018;1268;24402;-61
2022/01/26 10:55:11;;;;;;;22.60;9.30;;;;;;;3.07;91.93;101289.67;105908;1268;24281;-61
2022/01/26 10:57:42;;;;;;;24.40;8.80;;;;;;;3.10;91.67;101290.84;106026;1267;22566;-61
2022/01/26 11:00:15;;;;;;;23.70;8.40;;;;;;;3.11;91.66;101288.94;106007;1267;22518;-61
2022/01/26 11:02:48;;;;;;;24.30;9.20;;;;;;;3.13;91.43;101285.38;106056;1267;25258;-61
2022/01/26 11:05:20;;;;;;;25.40;11.30;;;;;;;3.14;91.43;101286.33;105977;1268;22648;-61
2022/01/26 11:07:52;;;;;;;33.10;10.50;;;;;;;3.16;91.52;101279.05;106045;1267;22557;-61
2022/01/26 11:10:31;;;;;;;29.60;11.40;;;;;;;3.19;91.52;101279.51;106101;1266;25368;-62
2022/01/26 11:13:04;;;;;;;25.40;10.60;;;;;;;3.21;91.43;101283.27;105988;1268;24228;-61
2022/01/26 11:15:36;;;;;;;24.00;8.40;;;;;;;3.22;91.17;101284.62;106192;1267;22529;-61
2022/01/26 11:18:19;;;;;;;19.80;7.10;;;;;;;3.22;90.70;101292.10;106036;1268;22554;-62
2022/01/26 11:20:53;;;;;;;20.90;7.30;;;;;;;3.20;90.59;101291.64;106080;1267;22558;-61
2022/01/26 11:23:36;;;;;;;22.10;7.40;;;;;;;3.19;90.53;101293.08;106038;1267;22562;-61
2022/01/26 11:26:22;;;;;;;24.00;6.60;;;;;;;3.17;90.19;101289.77;106007;1267;25391;-60
2022/01/26 11:28:53;;;;;;;20.80;6.90;;;;;;;3.14;90.19;101288.21;106204;1267;23385;-61
2022/01/26 11:31:25;;;;;;;19.90;6.80;;;;;;;3.13;90.25;101287.73;105979;1268;24230;-61
2022/01/26 11:33:58;;;;;;;20.90;7.10;;;;;;;3.12;90.41;101290.66;106140;1268;25614;-61
2022/01/26 11:36:31;;;;;;;19.70;6.50;;;;;;;3.11;90.21;101288.54;106012;1268;22562;-63
2022/01/26 11:42:33;;;;;;;25.50;8.70;;;;;;;3.09;90.40;101283.91;106096;1268;22615;-61
2022/01/26 11:45:15;;;;;;;25.50;10.00;;;;;;;3.07;90.41;101285.18;105976;1267;22648;-61
2022/01/26 11:48:01;;;;;;;22.30;6.80;;;;;;;3.08;90.56;101281.47;106063;1267;25290;-61
2022/01/26 11:50:33;;;;;;;20.00;6.80;;;;;;;3.07;90.15;101283.29;106139;1267;22525;-61
2022/01/26 11:53:06;;;;;;;16.80;5.60;;;;;;;3.06;89.99;101282.11;105959;1268;22594;-61
2022/01/26 11:55:46;;;;;;;19.30;7.20;;;;;;;3.03;89.88;101281.80;106075;1267;22568;-61
2022/01/26 11:58:28;;;;;;;21.40;7.50;;;;;;;3.02;90.06;101274.09;106078;1268;24377;-62
2022/01/26 12:01:15;;;;;;;19.50;7.70;;;;;;;3.01;90.06;101275.36;106236;1267;22582;-62
2022/01/26 12:03:57;;;;;;;20.70;8.50;;;;;;;3.01;90.13;101273.00;105998;1267;24425;-62
2022/01/26 12:06:35;;;;;;;21.10;7.90;;;;;;;3.02;90.24;101267.80;105954;1267;24359;-62
2022/01/26 12:09:09;;;;;;;26.90;10.30;;;;;;;3.02;90.31;101263.36;105968;1268;27685;-62
2022/01/26 12:11:40;;;;;;;18.80;6.50;;;;;;;3.02;90.17;101263.77;106031;1268;22786;-62
2022/01/26 12:14:18;;;;;;;19.00;6.70;;;;;;;3.02;90.07;101268.90;106279;1268;22628;-60
2022/01/26 12:16:53;;;;;;;21.60;7.10;;;;;;;3.01;90.03;101269.05;106028;1268;22545;-61
2022/01/26 12:19:32;;;;;;;23.00;9.60;;;;;;;3.01;89.94;101272.05;106108;1267;23371;-62
2022/01/26 12:34:07;;;;;;;22.60;7.60;;;;;;;2.98;89.78;101273.17;106017;1268;24261;-61
2022/01/26 12:36:54;;;;;;;19.90;6.80;;;;;;;2.98;89.86;101271.52;106012;1267;24268;-62
2022/01/26 12:42:25;;;;;;;19.60;6.60;;;;;;;2.97;89.73;101267.04;106044;1268;22557;-63
2022/01/26 12:45:03;;;;;;;15.80;4.70;;;;;;;2.98;89.70;101263.88;106010;1267;22556;-61
2022/01/26 12:47:35;;;;;;;16.50;5.10;;;;;;;2.98;89.69;101260.65;106091;1268;26584;-60
2022/01/26 12:50:07;;;;;;;16.90;5.50;;;;;;;2.98;89.55;101261.27;106460;1267;22650;-62
2022/01/26 12:52:39;;;;;;;18.30;3.70;;;;;;;2.98;89.28;101264.91;106132;1267;22560;-62
2022/01/26 12:55:21;;;;;;;10.60;2.70;;;;;;;2.98;89.20;101264.20;106029;1268;25054;-61
2022/01/26 12:57:54;;;;;;;12.50;3.40;;;;;;;2.98;89.09;101262.86;106531;1268;26621;-60
2022/01/26 13:00:37;;;;;;;10.50;2.80;;;;;;;2.98;89.02;101263.63;106440;1268;22856;-61
2022/01/26 13:03:18;;;;;;;12.50;3.10;;;;;;;2.99;88.85;101254.89;106103;1268;24434;-62
2022/01/26 13:05:49;;;;;;;9.40;1.80;;;;;;;2.99;88.18;101260.55;106056;1268;22652;-61
2022/01/26 13:08:21;;;;;;;10.70;2.30;;;;;;;2.98;88.33;101256.23;106061;1267;22566;-62